createdAt,value
2019-03-26T00:02:13.804Z,5.23
2019-03-26T00:04:42.092Z,5.43
2019-03-26T00:07:10.364Z,5.10
2019-03-26T00:09:38.714Z,5.00
2019-03-26T00:12:06.994Z,6.20
2019-03-26T00:14:35.259Z,4.93
2019-03-26T00:17:03.548Z,6.30
2019-03-26T00:19:31.835Z,5.60
2019-03-26T00:22:00.097Z,5.27
2019-03-26T00:24:28.370Z,5.47
2019-03-26T00:26:56.772Z,5.90
2019-03-26T00:29:25.050Z,5.93
2019-03-26T00:31:53.326Z,6.03
2019-03-26T00:34:21.614Z,6.07
2019-03-26T00:36:50.003Z,6.53
2019-03-26T00:39:18.263Z,5.90
2019-03-26T00:41:46.558Z,5.93
2019-03-26T00:44:14.812Z,6.37
2019-03-26T00:46:43.092Z,6.60
2019-03-26T00:49:11.378Z,6.27
2019-03-26T00:51:39.731Z,7.17
2019-03-26T00:54:07.988Z,6.90
2019-03-26T00:56:36.289Z,7.40
2019-03-26T00:59:04.566Z,6.77
2019-03-26T01:01:32.904Z,7.73
2019-03-26T01:04:01.180Z,8.63
2019-03-26T01:06:29.472Z,7.77
2019-03-26T01:08:57.733Z,8.10
2019-03-26T01:11:25.982Z,8.13
2019-03-26T01:13:54.269Z,8.00
2019-03-26T01:16:22.559Z,8.77
2019-03-26T01:18:50.852Z,8.33
2019-03-26T01:21:19.159Z,7.70
2019-03-26T01:23:47.418Z,7.93
2019-03-26T01:26:15.740Z,8.87
2019-03-26T01:28:44.060Z,7.80
2019-03-26T01:31:12.310Z,7.93
2019-03-26T01:33:40.599Z,7.93
2019-03-26T01:36:08.876Z,7.23
2019-03-26T01:38:37.210Z,7.10
2019-03-26T01:41:05.470Z,7.47
2019-03-26T01:43:33.752Z,7.43
2019-03-26T01:46:02.016Z,7.10
2019-03-26T01:48:30.354Z,6.77
2019-03-26T01:50:58.598Z,6.77
2019-03-26T01:53:26.878Z,6.80
2019-03-26T01:55:55.132Z,7.23
2019-03-26T01:58:23.439Z,7.27
2019-03-26T02:00:51.705Z,7.13
2019-03-26T02:03:20.059Z,7.20
2019-03-26T02:05:48.324Z,6.37
2019-03-26T02:08:16.597Z,6.83
2019-03-26T02:10:44.857Z,6.77
2019-03-26T02:13:13.133Z,6.53
2019-03-26T02:15:41.374Z,6.57
2019-03-26T02:18:09.681Z,6.77
2019-03-26T02:20:38.000Z,5.33
2019-03-26T02:23:06.250Z,5.40
2019-03-26T02:25:34.642Z,6.20
2019-03-26T02:28:02.912Z,5.70
2019-03-26T02:30:31.260Z,6.23
2019-03-26T02:32:59.543Z,5.80
2019-03-26T02:35:27.907Z,5.60
2019-03-26T02:37:56.242Z,5.57
2019-03-26T02:40:24.524Z,5.03
2019-03-26T02:42:52.810Z,4.80
2019-03-26T02:45:21.115Z,4.90
2019-03-26T02:47:49.358Z,4.90
2019-03-26T02:50:17.656Z,5.13
2019-03-26T02:52:45.980Z,4.13
2019-03-26T02:55:14.899Z,4.43
2019-03-26T02:57:43.186Z,4.43
2019-03-26T03:00:11.459Z,3.83
2019-03-26T03:02:39.718Z,4.20
2019-03-26T03:05:08.039Z,4.40
2019-03-26T03:07:36.337Z,4.53
2019-03-26T03:10:06.161Z,4.43
2019-03-26T03:12:34.434Z,4.13
2019-03-26T03:15:02.810Z,4.07
2019-03-26T03:17:31.162Z,4.00
2019-03-26T03:19:59.408Z,4.20
2019-03-26T03:22:27.701Z,4.30
2019-03-26T03:24:56.108Z,4.00
2019-03-26T03:27:24.395Z,4.30
2019-03-26T03:29:52.657Z,4.10
2019-03-26T03:32:20.941Z,3.60
2019-03-26T03:34:49.195Z,3.90
2019-03-26T03:37:17.486Z,4.07
2019-03-26T03:39:45.761Z,3.90
2019-03-26T03:42:14.036Z,3.87
2019-03-26T03:44:42.299Z,3.43
2019-03-26T03:47:11.072Z,3.97
2019-03-26T03:49:39.327Z,3.23
2019-03-26T03:52:07.606Z,3.40
2019-03-26T03:54:35.940Z,3.67
2019-03-26T03:57:04.231Z,4.20
2019-03-26T03:59:32.545Z,2.90
2019-03-26T04:02:00.837Z,2.77
2019-03-26T04:04:29.093Z,3.13
2019-03-26T04:06:57.393Z,3.40
2019-03-26T04:09:25.660Z,3.20
2019-03-26T04:11:53.968Z,3.00
2019-03-26T04:14:22.273Z,3.33
2019-03-26T04:16:50.653Z,3.07
2019-03-26T04:19:18.919Z,3.30
2019-03-26T04:21:47.163Z,3.73
2019-03-26T04:24:15.451Z,3.10
2019-03-26T04:26:43.698Z,2.83
2019-03-26T04:29:12.068Z,2.90
2019-03-26T04:31:40.310Z,2.90
2019-03-26T04:34:08.600Z,2.60
2019-03-26T04:36:36.849Z,3.13
2019-03-26T04:39:06.898Z,2.97
2019-03-26T04:41:35.504Z,3.23
2019-03-26T04:44:03.788Z,3.57
2019-03-26T04:46:32.050Z,2.87
2019-03-26T04:49:00.364Z,2.93
2019-03-26T04:51:28.652Z,2.93
2019-03-26T04:53:56.920Z,2.43
2019-03-26T04:56:25.183Z,3.33
2019-03-26T04:58:53.465Z,2.97
2019-03-26T05:01:21.733Z,2.57
2019-03-26T05:03:50.019Z,2.83
2019-03-26T05:06:18.285Z,2.30
2019-03-26T05:08:46.627Z,2.80
2019-03-26T05:11:14.903Z,2.43
2019-03-26T05:13:43.168Z,2.27
2019-03-26T05:16:11.451Z,3.07
2019-03-26T05:18:39.703Z,2.37
2019-03-26T05:21:07.996Z,2.60
2019-03-26T05:23:36.271Z,2.77
2019-03-26T05:26:04.656Z,2.10
2019-03-26T05:28:32.987Z,2.80
2019-03-26T05:31:01.267Z,2.67
2019-03-26T05:33:29.521Z,2.80
2019-03-26T05:35:57.800Z,2.73
2019-03-26T05:38:26.067Z,2.80
2019-03-26T05:40:54.349Z,2.80
2019-03-26T05:43:22.588Z,2.63
2019-03-26T05:45:50.867Z,2.47
2019-03-26T05:48:19.146Z,2.87
2019-03-26T05:50:47.454Z,2.37
2019-03-26T05:53:15.764Z,3.07
2019-03-26T05:55:44.094Z,2.97
2019-03-26T05:58:12.349Z,2.67
2019-03-26T06:00:40.623Z,2.90
2019-03-26T06:03:08.983Z,2.97
2019-03-26T06:05:37.286Z,2.30
2019-03-26T06:08:05.554Z,3.17
2019-03-26T06:10:33.859Z,3.10
2019-03-26T06:13:02.126Z,2.87
2019-03-26T06:15:30.377Z,3.23
2019-03-26T06:17:58.665Z,3.00
2019-03-26T06:20:26.924Z,3.23
2019-03-26T06:22:55.237Z,2.90
2019-03-26T06:25:23.568Z,2.87
2019-03-26T06:27:51.842Z,2.67
2019-03-26T06:30:20.117Z,3.33
2019-03-26T06:32:48.405Z,2.90
2019-03-26T06:35:16.678Z,3.73
2019-03-26T06:37:44.956Z,2.93
2019-03-26T06:40:13.236Z,2.50
2019-03-26T06:42:41.519Z,3.60
2019-03-26T06:45:10.441Z,2.50
2019-03-26T06:47:38.717Z,3.30
2019-03-26T06:50:08.523Z,3.83
2019-03-26T06:52:36.801Z,4.23
2019-03-26T06:55:08.635Z,4.23
2019-03-26T06:57:37.307Z,3.93
2019-03-26T07:00:07.559Z,4.37
2019-03-26T07:02:35.877Z,4.20
2019-03-26T07:05:04.497Z,4.93
2019-03-26T07:07:32.813Z,4.47
2019-03-26T07:10:01.083Z,3.90
2019-03-26T07:12:29.377Z,4.47
2019-03-26T07:14:57.748Z,4.03
2019-03-26T07:17:27.251Z,4.63
2019-03-26T07:19:55.673Z,3.83
2019-03-26T07:22:23.936Z,3.73
2019-03-26T07:24:52.243Z,3.93
2019-03-26T07:27:20.503Z,3.70
2019-03-26T07:29:48.816Z,3.97
2019-03-26T07:32:17.063Z,3.43
2019-03-26T07:34:45.327Z,3.50
2019-03-26T07:37:13.592Z,3.37
2019-03-26T07:39:41.876Z,3.17
2019-03-26T07:42:10.140Z,2.60
2019-03-26T07:44:38.394Z,3.50
2019-03-26T07:47:06.700Z,3.43
2019-03-26T07:49:34.969Z,3.07
2019-03-26T07:52:03.249Z,2.40
2019-03-26T07:54:32.706Z,2.80
2019-03-26T07:57:01.104Z,3.07
2019-03-26T07:59:29.503Z,3.03
2019-03-26T08:01:57.791Z,2.90
2019-03-26T08:04:26.122Z,3.00
2019-03-26T08:06:54.413Z,3.33
2019-03-26T08:09:22.801Z,3.53
2019-03-26T08:11:51.146Z,3.33
2019-03-26T08:14:19.408Z,3.60
2019-03-26T08:16:47.767Z,3.07
2019-03-26T08:19:16.073Z,3.60
2019-03-26T08:21:44.379Z,3.10
2019-03-26T08:24:12.650Z,3.50
2019-03-26T08:26:40.922Z,3.57
2019-03-26T08:29:09.177Z,3.30
2019-03-26T08:31:37.474Z,3.40
2019-03-26T08:34:05.733Z,2.87
2019-03-26T08:36:34.087Z,3.03
2019-03-26T08:39:02.464Z,3.97
2019-03-26T08:41:30.769Z,2.83
2019-03-26T08:43:59.044Z,3.00
2019-03-26T08:46:27.303Z,3.00
2019-03-26T08:48:55.596Z,2.73
2019-03-26T08:51:23.878Z,2.73
2019-03-26T08:53:52.228Z,3.30
2019-03-26T08:56:20.570Z,3.17
2019-03-26T08:58:48.933Z,2.20
2019-03-26T09:01:17.243Z,2.63
2019-03-26T09:03:45.574Z,2.23
2019-03-26T09:06:13.902Z,2.83
2019-03-26T09:08:42.218Z,2.70
2019-03-26T09:11:10.543Z,2.40
2019-03-26T09:13:38.833Z,2.20
2019-03-26T09:16:07.097Z,2.37
2019-03-26T09:18:35.407Z,2.60
2019-03-26T09:21:03.679Z,2.30
2019-03-26T09:23:31.980Z,2.13
2019-03-26T09:26:00.317Z,2.50
2019-03-26T09:28:28.686Z,2.30
2019-03-26T09:30:56.943Z,2.20
2019-03-26T09:33:25.239Z,2.80
2019-03-26T09:35:53.513Z,2.80
2019-03-26T09:38:21.839Z,2.50
2019-03-26T09:40:50.120Z,2.30
2019-03-26T09:43:18.388Z,2.40
2019-03-26T09:45:46.689Z,2.40
2019-03-26T09:48:14.952Z,2.33
2019-03-26T09:50:43.215Z,2.53
2019-03-26T09:53:11.481Z,2.20
2019-03-26T09:55:39.778Z,2.10
2019-03-26T09:58:08.038Z,2.33
2019-03-26T10:00:36.366Z,2.30
2019-03-26T10:03:04.753Z,2.57
2019-03-26T10:05:33.100Z,2.07
2019-03-26T10:08:01.380Z,2.47
2019-03-26T10:10:29.647Z,2.23
2019-03-26T10:12:57.888Z,1.80
2019-03-26T10:15:26.240Z,1.97
2019-03-26T10:17:54.511Z,2.10
2019-03-26T10:20:22.791Z,2.10
2019-03-26T10:22:51.140Z,1.97
2019-03-26T10:25:19.414Z,2.03
2019-03-26T10:27:47.684Z,2.10
2019-03-26T10:30:18.264Z,2.23
2019-03-26T10:32:46.537Z,1.97
2019-03-26T10:35:14.914Z,2.20
2019-03-26T10:37:43.183Z,1.63
2019-03-26T10:40:14.683Z,2.03
2019-03-26T10:42:42.964Z,2.60
2019-03-26T10:45:11.222Z,2.30
2019-03-26T10:47:39.506Z,1.83
2019-03-26T10:50:07.772Z,1.67
2019-03-26T10:52:36.060Z,1.77
2019-03-26T10:55:05.558Z,1.67
2019-03-26T10:57:34.446Z,1.60
2019-03-26T11:00:03.819Z,1.70
2019-03-26T11:02:32.105Z,1.63
2019-03-26T11:05:00.378Z,1.23
2019-03-26T11:07:28.704Z,1.10
2019-03-26T11:09:56.962Z,1.17
2019-03-26T11:12:25.253Z,1.27
2019-03-26T11:14:53.514Z,1.23
2019-03-26T11:17:21.849Z,1.43
2019-03-26T11:19:50.192Z,1.60
2019-03-26T11:22:18.472Z,1.40
2019-03-26T11:24:46.767Z,1.93
2019-03-26T11:27:15.044Z,1.60
2019-03-26T11:29:43.343Z,1.77
2019-03-26T11:32:11.604Z,1.90
2019-03-26T11:34:39.944Z,1.90
2019-03-26T11:37:08.238Z,1.57
2019-03-26T11:39:36.578Z,1.30
2019-03-26T11:42:04.838Z,2.10
2019-03-26T11:44:33.248Z,1.80
2019-03-26T11:47:01.527Z,1.80
2019-03-26T11:49:29.844Z,1.90
2019-03-26T11:51:58.108Z,1.70
2019-03-26T11:54:26.471Z,2.03
2019-03-26T11:56:54.816Z,2.00
2019-03-26T11:59:23.079Z,2.10
2019-03-26T12:01:52.538Z,2.47
2019-03-26T12:04:21.082Z,2.37
2019-03-26T12:06:49.338Z,2.50
2019-03-26T12:09:17.606Z,1.90
2019-03-26T12:11:45.877Z,1.97
2019-03-26T12:14:14.248Z,2.60
2019-03-26T12:16:42.485Z,2.50
2019-03-26T12:19:10.801Z,2.67
2019-03-26T12:21:39.078Z,2.50
2019-03-26T12:24:07.397Z,2.80
2019-03-26T12:26:35.682Z,2.53
2019-03-26T12:29:03.928Z,3.20
2019-03-26T12:31:32.212Z,3.40
2019-03-26T12:34:00.503Z,3.13
2019-03-26T12:36:39.458Z,3.10
2019-03-26T12:38:58.776Z,3.13
2019-03-26T12:41:27.058Z,3.47
2019-03-26T12:43:55.399Z,3.40
2019-03-26T12:46:23.718Z,3.73
2019-03-26T12:48:52.041Z,2.93
2019-03-26T12:51:20.324Z,3.60
2019-03-26T12:53:48.583Z,3.77
2019-03-26T12:56:16.875Z,3.50
2019-03-26T12:58:45.168Z,4.07
2019-03-26T13:01:13.526Z,3.53
2019-03-26T13:03:42.093Z,4.17
2019-03-26T13:06:10.411Z,3.47
2019-03-26T13:08:38.744Z,3.17
2019-03-26T13:11:07.058Z,3.07
2019-03-26T13:13:35.391Z,3.93
2019-03-26T13:16:03.650Z,3.27
2019-03-26T13:18:31.960Z,3.07
2019-03-26T13:21:00.274Z,2.90
2019-03-26T13:23:28.572Z,3.17
2019-03-26T13:25:56.841Z,2.80
2019-03-26T13:28:25.134Z,3.27
2019-03-26T13:30:53.402Z,3.33
2019-03-26T13:33:21.703Z,2.97
2019-03-26T13:35:49.967Z,4.00
2019-03-26T13:38:18.310Z,3.20
2019-03-26T13:40:46.584Z,2.90
2019-03-26T13:43:14.870Z,2.97
2019-03-26T13:45:43.148Z,2.87
2019-03-26T13:48:11.431Z,3.33
2019-03-26T13:50:39.762Z,4.23
2019-03-26T13:53:08.084Z,3.37
2019-03-26T13:55:36.430Z,3.60
2019-03-26T13:58:04.742Z,4.00
2019-03-26T14:00:34.675Z,3.63
2019-03-26T14:03:02.946Z,4.73
2019-03-26T14:05:31.207Z,3.67
2019-03-26T14:07:59.473Z,3.60
2019-03-26T14:10:40.261Z,4.33
2019-03-26T14:12:57.727Z,3.53
2019-03-26T14:15:26.008Z,3.57
2019-03-26T14:17:54.258Z,4.27
2019-03-26T14:20:22.575Z,2.43
2019-03-26T14:22:50.889Z,3.70
2019-03-26T14:25:19.180Z,2.70
2019-03-26T14:27:47.447Z,2.97
2019-03-26T14:30:19.071Z,2.70
2019-03-26T14:32:47.318Z,2.53
2019-03-26T14:35:15.593Z,2.80
2019-03-26T14:37:50.999Z,2.53
2019-03-26T14:40:13.886Z,2.47
2019-03-26T14:42:42.146Z,2.73
2019-03-26T14:45:10.428Z,2.50
2019-03-26T14:47:38.689Z,2.47
2019-03-26T14:50:07.044Z,2.33
2019-03-26T14:52:35.284Z,2.50
2019-03-26T14:55:04.568Z,2.70
2019-03-26T14:57:32.986Z,3.27
2019-03-26T15:00:01.276Z,2.23
2019-03-26T15:02:29.606Z,2.90
2019-03-26T15:04:57.922Z,2.43
2019-03-26T15:07:26.249Z,2.70
2019-03-26T15:09:54.558Z,2.93
2019-03-26T15:12:22.847Z,2.80
2019-03-26T15:14:51.121Z,2.70
2019-03-26T15:17:19.435Z,3.10
2019-03-26T15:19:47.687Z,3.80
2019-03-26T15:22:16.078Z,3.33
2019-03-26T15:24:44.420Z,3.40
2019-03-26T15:27:12.708Z,3.30
2019-03-26T15:29:41.065Z,3.23
2019-03-26T15:32:09.419Z,3.43
2019-03-26T15:34:37.701Z,3.57
2019-03-26T15:37:06.151Z,3.53
2019-03-26T15:39:34.428Z,4.13
2019-03-26T15:42:02.698Z,3.30
2019-03-26T15:44:30.997Z,4.47
2019-03-26T15:46:59.279Z,3.60
2019-03-26T15:49:27.639Z,3.73
2019-03-26T15:51:55.942Z,3.40
2019-03-26T15:54:24.199Z,3.47
2019-03-26T15:56:52.593Z,3.43
2019-03-26T15:59:20.843Z,3.50
2019-03-26T16:01:49.122Z,3.13
2019-03-26T16:04:17.417Z,3.00
2019-03-26T16:06:45.717Z,3.17
2019-03-26T16:09:14.026Z,2.90
2019-03-26T16:11:42.353Z,2.83
2019-03-26T16:14:10.682Z,2.73
2019-03-26T16:16:39.031Z,2.77
2019-03-26T16:19:07.323Z,2.90
2019-03-26T16:21:35.660Z,3.03
2019-03-26T16:24:04.052Z,4.10
2019-03-26T16:26:32.395Z,3.50
2019-03-26T16:29:00.698Z,3.67
2019-03-26T16:31:28.994Z,3.50
2019-03-26T16:33:57.378Z,3.60
2019-03-26T16:36:25.749Z,3.80
2019-03-26T16:38:54.131Z,3.47
2019-03-26T16:41:22.473Z,3.50
2019-03-26T16:43:50.839Z,3.73
2019-03-26T16:46:19.116Z,3.47
2019-03-26T16:48:49.158Z,4.17
2019-03-26T16:51:17.431Z,3.20
2019-03-26T16:53:45.670Z,3.73
2019-03-26T16:56:13.986Z,3.87
2019-03-26T16:58:42.273Z,3.80
2019-03-26T17:01:10.707Z,3.77
2019-03-26T17:03:38.996Z,3.93
2019-03-26T17:06:07.404Z,3.40
2019-03-26T17:08:35.902Z,3.53
2019-03-26T17:11:04.308Z,3.83
2019-03-26T17:13:32.641Z,3.47
2019-03-26T17:16:00.947Z,4.20
2019-03-26T17:18:29.303Z,3.57
2019-03-26T17:20:57.611Z,4.47
2019-03-26T17:23:25.865Z,4.27
2019-03-26T17:25:54.186Z,4.30
2019-03-26T17:28:22.446Z,4.73
2019-03-26T17:30:50.771Z,4.87
2019-03-26T17:33:19.097Z,4.00
2019-03-26T17:35:47.389Z,4.87
2019-03-26T17:38:15.686Z,4.73
2019-03-26T17:40:43.978Z,4.97
2019-03-26T17:43:12.250Z,4.97
2019-03-26T17:45:40.637Z,5.57
2019-03-26T17:48:09.002Z,5.00
2019-03-26T17:50:37.365Z,4.90
2019-03-26T17:53:05.652Z,4.60
2019-03-26T17:55:33.993Z,5.00
2019-03-26T17:58:02.336Z,6.60
2019-03-26T18:00:43.893Z,5.73
2019-03-26T18:03:25.136Z,5.40
2019-03-26T18:05:42.193Z,6.40
2019-03-26T18:08:10.485Z,5.50
2019-03-26T18:10:38.782Z,5.50
2019-03-26T18:13:07.091Z,6.77
2019-03-26T18:15:35.426Z,6.47
2019-03-26T18:18:03.721Z,7.07
2019-03-26T18:20:33.158Z,6.30
2019-03-26T18:23:01.573Z,6.53
2019-03-26T18:25:29.873Z,6.17
2019-03-26T18:27:58.300Z,6.27
2019-03-26T18:30:26.571Z,6.27
2019-03-26T18:32:54.869Z,7.20
2019-03-26T18:35:23.152Z,5.37
2019-03-26T18:37:51.537Z,6.60
2019-03-26T18:40:19.981Z,6.47
2019-03-26T18:42:48.303Z,6.23
2019-03-26T18:45:16.665Z,6.43
2019-03-26T18:47:44.996Z,6.70
2019-03-26T18:50:13.355Z,5.70
2019-03-26T18:52:41.822Z,7.00
2019-03-26T18:55:10.199Z,7.47
2019-03-26T18:57:38.475Z,8.40
2019-03-26T19:00:12.323Z,8.20
2019-03-26T19:02:40.601Z,7.13
2019-03-26T19:05:08.966Z,7.80
2019-03-26T19:07:37.223Z,8.17
2019-03-26T19:10:08.029Z,8.27
2019-03-26T19:12:36.330Z,8.77
2019-03-26T19:15:06.317Z,8.70
2019-03-26T19:17:34.603Z,8.67
2019-03-26T19:20:03.093Z,8.37
2019-03-26T19:22:52.230Z,8.60
2019-03-26T19:25:33.040Z,8.77
2019-03-26T19:28:13.982Z,9.00
2019-03-26T19:30:54.727Z,8.30
2019-03-26T19:33:35.876Z,7.70
2019-03-26T19:36:16.463Z,8.53
2019-03-26T19:38:57.201Z,8.87
2019-03-26T19:41:37.911Z,8.17
2019-03-26T19:44:18.475Z,8.70
2019-03-26T19:46:59.227Z,10.03
2019-03-26T19:49:40.108Z,8.80
2019-03-26T19:52:20.807Z,8.03
2019-03-26T19:55:01.552Z,7.53
2019-03-26T19:57:42.058Z,8.33
2019-03-26T20:00:22.481Z,8.17
2019-03-26T20:03:03.279Z,9.30
2019-03-26T20:05:44.041Z,8.03
2019-03-26T20:08:24.580Z,8.03
2019-03-26T20:11:05.241Z,7.50
2019-03-26T20:13:45.841Z,7.57
2019-03-26T20:16:27.389Z,7.90
2019-03-26T20:19:09.211Z,7.63
2019-03-26T20:21:49.963Z,6.27
2019-03-26T20:24:30.333Z,6.17
2019-03-26T20:27:11.187Z,6.97
2019-03-26T20:29:51.707Z,6.00
2019-03-26T20:32:32.181Z,6.17
2019-03-26T20:35:12.744Z,5.60
2019-03-26T20:37:53.432Z,6.70
2019-03-26T20:40:34.207Z,7.07
2019-03-26T20:43:14.725Z,5.73
2019-03-26T20:45:55.143Z,6.37
2019-03-26T20:48:36.112Z,5.17
2019-03-26T20:51:16.760Z,5.83
2019-03-26T20:54:16.562Z,6.03
2019-03-26T21:00:04.566Z,5.27
2019-03-26T21:02:45.661Z,4.93
2019-03-26T21:05:26.331Z,5.10
2019-03-26T21:08:06.707Z,6.03
2019-03-26T21:10:47.257Z,6.20
2019-03-26T21:13:27.755Z,5.57
2019-03-26T21:16:08.451Z,6.13
2019-03-26T21:18:49.256Z,6.90
2019-03-26T21:21:29.940Z,6.20
2019-03-26T21:24:10.506Z,6.33
2019-03-26T21:26:50.842Z,6.33
2019-03-26T21:29:31.554Z,6.80
2019-03-26T21:32:12.246Z,6.47
2019-03-26T21:34:53.163Z,6.20
2019-03-26T21:37:34.446Z,6.20
2019-03-26T21:40:15.141Z,6.70
2019-03-26T21:42:55.778Z,6.80
2019-03-26T21:45:36.181Z,6.67
2019-03-26T21:48:16.651Z,6.33
2019-03-26T21:50:57.300Z,6.40
2019-03-26T21:53:38.356Z,6.70
2019-03-26T21:56:19.318Z,6.70
2019-03-26T21:59:00.174Z,6.63
2019-03-26T22:01:40.733Z,5.93
2019-03-26T22:04:21.366Z,5.77
2019-03-26T22:07:02.150Z,6.33
2019-03-26T22:09:42.805Z,5.93
2019-03-26T22:12:23.692Z,5.20
2019-03-26T22:15:04.177Z,5.43
2019-03-26T22:17:44.773Z,5.83
2019-03-26T22:20:25.086Z,4.93
2019-03-26T22:23:05.603Z,5.00
2019-03-26T22:25:46.272Z,4.43
2019-03-26T22:28:27.162Z,4.47
2019-03-26T22:31:07.862Z,4.47
2019-03-26T22:37:07.837Z,4.37
2019-03-26T22:39:48.630Z,5.43
2019-03-26T22:42:29.521Z,4.30
2019-03-26T22:45:10.248Z,4.63
2019-03-26T22:47:50.524Z,5.13
2019-03-26T22:50:31.489Z,5.33
2019-03-26T22:53:12.211Z,4.73
2019-03-26T22:55:53.002Z,4.87
2019-03-26T22:58:33.820Z,5.13
2019-03-26T23:01:14.575Z,5.40
2019-03-26T23:03:55.095Z,4.07
2019-03-26T23:06:35.815Z,5.60
2019-03-26T23:09:16.292Z,5.30
2019-03-26T23:11:57.091Z,5.67
2019-03-26T23:14:45.169Z,5.43
2019-03-26T23:17:20.461Z,5.93
2019-03-26T23:20:01.302Z,5.60
2019-03-26T23:25:47.305Z,6.27
2019-03-26T23:28:28.102Z,5.83
2019-03-26T23:37:30.084Z,5.80
2019-03-26T23:40:10.972Z,6.20
2019-03-26T23:42:51.631Z,6.67
2019-03-26T23:45:51.397Z,6.27
2019-03-26T23:48:51.616Z,6.43
2019-03-26T23:54:14.807Z,7.60
